sensor_id;sensor_type;location;lat;lon;timestamp;P1;durP1;ratioP1;P2;durP2;ratioP2
70342;SDS011;57767;42.068;24.752;2023-02-04T00:00:38;11.75;;;7.40;;
70342;SDS011;57767;42.068;24.752;2023-02-04T00:01:41;10.35;;;7.28;;
70342;SDS011;57767;42.068;24.752;2023-02-04T00:02:43;8.63;;;6.03;;
70342;SDS011;57767;42.068;24.752;2023-02-04T00:03:45;8.65;;;6.10;;
70342;SDS011;57767;42.068;24.752;2023-02-04T00:04:47;9.07;;;6.43;;
70342;SDS011;57767;42.068;24.752;2023-02-04T00:05:48;8.48;;;5.93;;
70342;SDS011;57767;42.068;24.752;2023-02-04T00:06:50;8.95;;;6.18;;
70342;SDS011;57767;42.068;24.752;2023-02-04T00:07:52;10.20;;;6.32;;
70342;SDS011;57767;42.068;24.752;2023-02-04T00:08:53;8.38;;;5.63;;
70342;SDS011;57767;42.068;24.752;2023-02-04T00:09:55;8.50;;;5.80;;
70342;SDS011;57767;42.068;24.752;2023-02-04T00:10:57;9.13;;;6.00;;
70342;SDS011;57767;42.068;24.752;2023-02-04T00:11:59;9.23;;;6.05;;
70342;SDS011;57767;42.068;24.752;2023-02-04T00:13:01;7.93;;;5.85;;
70342;SDS011;57767;42.068;24.752;2023-02-04T00:14:03;8.30;;;5.90;;
70342;SDS011;57767;42.068;24.752;2023-02-04T00:15:05;8.23;;;5.85;;
70342;SDS011;57767;42.068;24.752;2023-02-04T00:16:07;9.68;;;5.95;;
70342;SDS011;57767;42.068;24.752;2023-02-04T00:17:09;9.23;;;6.10;;
70342;SDS011;57767;42.068;24.752;2023-02-04T00:18:13;9.82;;;5.88;;
70342;SDS011;57767;42.068;24.752;2023-02-04T00:19:14;9.38;;;5.90;;
70342;SDS011;57767;42.068;24.752;2023-02-04T00:20:17;10.43;;;6.25;;
70342;SDS011;57767;42.068;24.752;2023-02-04T00:21:19;6.55;;;5.18;;
70342;SDS011;57767;42.068;24.752;2023-02-04T00:22:21;7.40;;;5.38;;
70342;SDS011;57767;42.068;24.752;2023-02-04T00:23:23;7.35;;;5.55;;
70342;SDS011;57767;42.068;24.752;2023-02-04T00:24:25;9.95;;;5.85;;
70342;SDS011;57767;42.068;24.752;2023-02-04T00:25:26;9.07;;;5.97;;
70342;SDS011;57767;42.068;24.752;2023-02-04T00:26:28;10.88;;;5.97;;
70342;SDS011;57767;42.068;24.752;2023-02-04T00:27:30;9.85;;;5.97;;
70342;SDS011;57767;42.068;24.752;2023-02-04T00:28:32;8.73;;;5.70;;
70342;SDS011;57767;42.068;24.752;2023-02-04T00:29:34;9.13;;;5.80;;
70342;SDS011;57767;42.068;24.752;2023-02-04T00:30:35;9.05;;;5.63;;
70342;SDS011;57767;42.068;24.752;2023-02-04T00:31:37;7.88;;;5.50;;
70342;SDS011;57767;42.068;24.752;2023-02-04T00:32:39;7.85;;;5.40;;
70342;SDS011;57767;42.068;24.752;2023-02-04T00:33:41;10.18;;;5.40;;
70342;SDS011;57767;42.068;24.752;2023-02-04T00:34:44;8.85;;;5.45;;
70342;SDS011;57767;42.068;24.752;2023-02-04T00:35:45;9.73;;;5.70;;
70342;SDS011;57767;42.068;24.752;2023-02-04T00:36:47;8.23;;;5.60;;
70342;SDS011;57767;42.068;24.752;2023-02-04T00:37:50;10.45;;;5.93;;
70342;SDS011;57767;42.068;24.752;2023-02-04T00:38:52;10.95;;;6.47;;
70342;SDS011;57767;42.068;24.752;2023-02-04T00:39:53;9.40;;;5.93;;
70342;SDS011;57767;42.068;24.752;2023-02-04T00:40:55;10.13;;;6.15;;
70342;SDS011;57767;42.068;24.752;2023-02-04T00:41:57;6.80;;;4.88;;
70342;SDS011;57767;42.068;24.752;2023-02-04T00:42:58;9.15;;;5.80;;
70342;SDS011;57767;42.068;24.752;2023-02-04T00:44:00;8.00;;;5.63;;
70342;SDS011;57767;42.068;24.752;2023-02-04T00:45:02;8.52;;;6.03;;
70342;SDS011;57767;42.068;24.752;2023-02-04T00:46:04;8.57;;;5.82;;
70342;SDS011;57767;42.068;24.752;2023-02-04T00:47:06;10.27;;;6.63;;
70342;SDS011;57767;42.068;24.752;2023-02-04T00:48:07;12.00;;;6.25;;
70342;SDS011;57767;42.068;24.752;2023-02-04T00:49:09;11.80;;;6.72;;
70342;SDS011;57767;42.068;24.752;2023-02-04T00:50:11;17.15;;;8.48;;
70342;SDS011;57767;42.068;24.752;2023-02-04T00:51:13;19.60;;;10.80;;
70342;SDS011;57767;42.068;24.752;2023-02-04T00:52:15;17.73;;;8.85;;
70342;SDS011;57767;42.068;24.752;2023-02-04T00:53:16;14.32;;;8.23;;
70342;SDS011;57767;42.068;24.752;2023-02-04T00:54:18;16.10;;;8.45;;
70342;SDS011;57767;42.068;24.752;2023-02-04T00:55:20;12.10;;;7.03;;
70342;SDS011;57767;42.068;24.752;2023-02-04T00:56:22;14.88;;;7.65;;
70342;SDS011;57767;42.068;24.752;2023-02-04T00:57:23;13.50;;;7.43;;
70342;SDS011;57767;42.068;24.752;2023-02-04T00:58:25;16.08;;;7.07;;
70342;SDS011;57767;42.068;24.752;2023-02-04T00:59:27;12.40;;;7.07;;
70342;SDS011;57767;42.068;24.752;2023-02-04T01:00:28;13.38;;;6.90;;
70342;SDS011;57767;42.068;24.752;2023-02-04T01:01:31;11.02;;;6.50;;
70342;SDS011;57767;42.068;24.752;2023-02-04T01:02:33;13.48;;;6.95;;
70342;SDS011;57767;42.068;24.752;2023-02-04T01:03:35;11.43;;;6.53;;
70342;SDS011;57767;42.068;24.752;2023-02-04T01:04:36;11.30;;;6.28;;
70342;SDS011;57767;42.068;24.752;2023-02-04T01:05:38;8.98;;;5.90;;
70342;SDS011;57767;42.068;24.752;2023-02-04T01:06:40;10.70;;;6.18;;
70342;SDS011;57767;42.068;24.752;2023-02-04T01:07:42;11.60;;;6.32;;
70342;SDS011;57767;42.068;24.752;2023-02-04T01:08:43;8.10;;;5.78;;
70342;SDS011;57767;42.068;24.752;2023-02-04T01:09:45;10.75;;;6.43;;
70342;SDS011;57767;42.068;24.752;2023-02-04T01:10:47;11.45;;;6.20;;
70342;SDS011;57767;42.068;24.752;2023-02-04T01:11:49;10.68;;;6.05;;
70342;SDS011;57767;42.068;24.752;2023-02-04T01:12:50;10.40;;;5.60;;
70342;SDS011;57767;42.068;24.752;2023-02-04T01:13:52;11.32;;;5.93;;
70342;SDS011;57767;42.068;24.752;2023-02-04T01:14:54;9.98;;;5.72;;
70342;SDS011;57767;42.068;24.752;2023-02-04T01:15:56;9.88;;;6.07;;
70342;SDS011;57767;42.068;24.752;2023-02-04T01:16:57;8.63;;;5.82;;
70342;SDS011;57767;42.068;24.752;2023-02-04T01:17:59;12.18;;;6.43;;
70342;SDS011;57767;42.068;24.752;2023-02-04T01:19:01;11.60;;;6.38;;
70342;SDS011;57767;42.068;24.752;2023-02-04T01:20:03;12.30;;;6.32;;
70342;SDS011;57767;42.068;24.752;2023-02-04T01:21:05;10.23;;;6.20;;
70342;SDS011;57767;42.068;24.752;2023-02-04T01:22:07;11.32;;;6.53;;
70342;SDS011;57767;42.068;24.752;2023-02-04T01:23:08;8.95;;;5.97;;
70342;SDS011;57767;42.068;24.752;2023-02-04T01:24:10;10.60;;;6.18;;
70342;SDS011;57767;42.068;24.752;2023-02-04T01:25:12;11.27;;;6.32;;
70342;SDS011;57767;42.068;24.752;2023-02-04T01:26:14;12.35;;;6.85;;
70342;SDS011;57767;42.068;24.752;2023-02-04T01:27:16;13.40;;;6.18;;
70342;SDS011;57767;42.068;24.752;2023-02-04T01:28:18;9.40;;;6.70;;
70342;SDS011;57767;42.068;24.752;2023-02-04T01:29:20;11.70;;;6.32;;
70342;SDS011;57767;42.068;24.752;2023-02-04T01:30:22;11.80;;;7.00;;
70342;SDS011;57767;42.068;24.752;2023-02-04T01:31:24;11.75;;;6.53;;
70342;SDS011;57767;42.068;24.752;2023-02-04T01:32:25;12.23;;;7.05;;
70342;SDS011;57767;42.068;24.752;2023-02-04T01:33:27;10.05;;;7.00;;
70342;SDS011;57767;42.068;24.752;2023-02-04T01:34:29;10.25;;;6.57;;
70342;SDS011;57767;42.068;24.752;2023-02-04T01:35:32;15.32;;;6.65;;
70342;SDS011;57767;42.068;24.752;2023-02-04T01:36:33;13.50;;;6.28;;
70342;SDS011;57767;42.068;24.752;2023-02-04T01:37:35;13.35;;;7.22;;
70342;SDS011;57767;42.068;24.752;2023-02-04T01:38:37;12.38;;;6.90;;
70342;SDS011;57767;42.068;24.752;2023-02-04T01:39:39;10.38;;;6.85;;
70342;SDS011;57767;42.068;24.752;2023-02-04T01:40:41;11.68;;;6.70;;
70342;SDS011;57767;42.068;24.752;2023-02-04T01:41:43;10.15;;;6.78;;
70342;SDS011;57767;42.068;24.752;2023-02-04T01:42:45;9.60;;;6.20;;
70342;SDS011;57767;42.068;24.752;2023-02-04T01:43:47;12.32;;;7.43;;
70342;SDS011;57767;42.068;24.752;2023-02-04T01:44:49;14.80;;;7.07;;
70342;SDS011;57767;42.068;24.752;2023-02-04T01:45:52;12.00;;;7.78;;
70342;SDS011;57767;42.068;24.752;2023-02-04T01:46:54;11.18;;;7.20;;
70342;SDS011;57767;42.068;24.752;2023-02-04T01:47:56;11.05;;;7.22;;
70342;SDS011;57767;42.068;24.752;2023-02-04T01:48:58;10.93;;;6.72;;
70342;SDS011;57767;42.068;24.752;2023-02-04T01:49:59;12.23;;;6.72;;
70342;SDS011;57767;42.068;24.752;2023-02-04T01:51:03;15.85;;;7.43;;
70342;SDS011;57767;42.068;24.752;2023-02-04T01:52:08;14.15;;;8.02;;
70342;SDS011;57767;42.068;24.752;2023-02-04T01:53:11;13.27;;;7.40;;
70342;SDS011;57767;42.068;24.752;2023-02-04T01:54:13;11.63;;;7.40;;
70342;SDS011;57767;42.068;24.752;2023-02-04T01:55:18;11.68;;;7.55;;
70342;SDS011;57767;42.068;24.752;2023-02-04T01:56:23;15.32;;;7.57;;
70342;SDS011;57767;42.068;24.752;2023-02-04T01:57:28;15.35;;;7.65;;
70342;SDS011;57767;42.068;24.752;2023-02-04T01:58:37;14.35;;;7.32;;
70342;SDS011;57767;42.068;24.752;2023-02-04T01:59:40;16.52;;;8.38;;
70342;SDS011;57767;42.068;24.752;2023-02-04T02:00:45;16.80;;;8.18;;
70342;SDS011;57767;42.068;24.752;2023-02-04T02:01:50;15.75;;;7.57;;
70342;SDS011;57767;42.068;24.752;2023-02-04T02:02:53;14.27;;;7.90;;
70342;SDS011;57767;42.068;24.752;2023-02-04T02:03:55;13.63;;;8.38;;
70342;SDS011;57767;42.068;24.752;2023-02-04T02:04:56;16.63;;;8.65;;
70342;SDS011;57767;42.068;24.752;2023-02-04T02:05:58;17.23;;;8.57;;
70342;SDS011;57767;42.068;24.752;2023-02-04T02:07:01;18.25;;;8.77;;
70342;SDS011;57767;42.068;24.752;2023-02-04T02:08:05;15.05;;;8.10;;
70342;SDS011;57767;42.068;24.752;2023-02-04T02:09:08;15.57;;;9.07;;
70342;SDS011;57767;42.068;24.752;2023-02-04T02:10:10;17.27;;;8.57;;
70342;SDS011;57767;42.068;24.752;2023-02-04T02:11:13;14.95;;;8.68;;
70342;SDS011;57767;42.068;24.752;2023-02-04T02:12:15;17.83;;;10.32;;
70342;SDS011;57767;42.068;24.752;2023-02-04T02:13:17;17.42;;;9.02;;
70342;SDS011;57767;42.068;24.752;2023-02-04T02:14:20;15.15;;;8.60;;
70342;SDS011;57767;42.068;24.752;2023-02-04T02:15:22;15.70;;;8.63;;
70342;SDS011;57767;42.068;24.752;2023-02-04T02:16:25;11.75;;;7.43;;
70342;SDS011;57767;42.068;24.752;2023-02-04T02:17:27;14.30;;;8.00;;
70342;SDS011;57767;42.068;24.752;2023-02-04T02:18:29;12.77;;;7.78;;
70342;SDS011;57767;42.068;24.752;2023-02-04T02:19:32;12.55;;;7.30;;
70342;SDS011;57767;42.068;24.752;2023-02-04T02:20:37;11.80;;;7.22;;
70342;SDS011;57767;42.068;24.752;2023-02-04T02:21:43;12.65;;;7.28;;
70342;SDS011;57767;42.068;24.752;2023-02-04T02:24:39;11.63;;;6.78;;
70342;SDS011;57767;42.068;24.752;2023-02-04T02:25:35;10.35;;;6.40;;
70342;SDS011;57767;42.068;24.752;2023-02-04T02:26:37;10.93;;;6.75;;
70342;SDS011;57767;42.068;24.752;2023-02-04T02:27:39;9.95;;;6.35;;
70342;SDS011;57767;42.068;24.752;2023-02-04T02:28:41;13.38;;;7.28;;
70342;SDS011;57767;42.068;24.752;2023-02-04T02:29:44;11.90;;;7.53;;
70342;SDS011;57767;42.068;24.752;2023-02-04T02:30:46;12.18;;;7.30;;
70342;SDS011;57767;42.068;24.752;2023-02-04T02:31:50;11.32;;;7.00;;
70342;SDS011;57767;42.068;24.752;2023-02-04T02:32:52;12.02;;;7.30;;
70342;SDS011;57767;42.068;24.752;2023-02-04T02:33:54;12.63;;;7.43;;
70342;SDS011;57767;42.068;24.752;2023-02-04T02:34:56;11.25;;;6.97;;
70342;SDS011;57767;42.068;24.752;2023-02-04T02:35:58;12.43;;;6.97;;
70342;SDS011;57767;42.068;24.752;2023-02-04T02:37:00;12.35;;;7.10;;
70342;SDS011;57767;42.068;24.752;2023-02-04T02:38:03;13.73;;;7.88;;
70342;SDS011;57767;42.068;24.752;2023-02-04T02:39:05;11.18;;;7.30;;
70342;SDS011;57767;42.068;24.752;2023-02-04T02:40:07;14.40;;;7.55;;
70342;SDS011;57767;42.068;24.752;2023-02-04T02:41:10;11.23;;;7.15;;
70342;SDS011;57767;42.068;24.752;2023-02-04T02:42:13;14.10;;;6.90;;
70342;SDS011;57767;42.068;24.752;2023-02-04T02:43:18;11.50;;;6.90;;
70342;SDS011;57767;42.068;24.752;2023-02-04T02:44:23;9.48;;;6.80;;
70342;SDS011;57767;42.068;24.752;2023-02-04T02:45:27;10.80;;;7.00;;
70342;SDS011;57767;42.068;24.752;2023-02-04T02:46:31;13.10;;;7.10;;
70342;SDS011;57767;42.068;24.752;2023-02-04T02:47:33;11.48;;;7.35;;
70342;SDS011;57767;42.068;24.752;2023-02-04T02:48:35;10.57;;;7.53;;
70342;SDS011;57767;42.068;24.752;2023-02-04T02:49:37;11.88;;;7.50;;
70342;SDS011;57767;42.068;24.752;2023-02-04T02:50:41;13.10;;;7.80;;
70342;SDS011;57767;42.068;24.752;2023-02-04T02:51:44;12.43;;;7.05;;
70342;SDS011;57767;42.068;24.752;2023-02-04T02:52:46;10.60;;;7.30;;
70342;SDS011;57767;42.068;24.752;2023-02-04T02:53:48;10.23;;;6.97;;
70342;SDS011;57767;42.068;24.752;2023-02-04T02:54:50;12.98;;;7.85;;
70342;SDS011;57767;42.068;24.752;2023-02-04T02:55:53;12.82;;;7.72;;
70342;SDS011;57767;42.068;24.752;2023-02-04T02:56:56;14.50;;;7.80;;
70342;SDS011;57767;42.068;24.752;2023-02-04T02:57:59;12.05;;;7.00;;
70342;SDS011;57767;42.068;24.752;2023-02-04T02:59:14;12.55;;;7.88;;
70342;SDS011;57767;42.068;24.752;2023-02-04T03:01:20;11.15;;;7.38;;
70342;SDS011;57767;42.068;24.752;2023-02-04T03:02:22;12.57;;;8.05;;
70342;SDS011;57767;42.068;24.752;2023-02-04T03:03:28;12.68;;;7.20;;
70342;SDS011;57767;42.068;24.752;2023-02-04T03:04:34;13.10;;;7.15;;
70342;SDS011;57767;42.068;24.752;2023-02-04T03:05:41;13.07;;;7.05;;
70342;SDS011;57767;42.068;24.752;2023-02-04T03:06:45;10.90;;;7.00;;
70342;SDS011;57767;42.068;24.752;2023-02-04T03:07:47;13.20;;;7.80;;
70342;SDS011;57767;42.068;24.752;2023-02-04T03:08:49;10.25;;;7.07;;
70342;SDS011;57767;42.068;24.752;2023-02-04T03:09:55;13.05;;;7.22;;
70342;SDS011;57767;42.068;24.752;2023-02-04T03:10:57;11.93;;;6.82;;
70342;SDS011;57767;42.068;24.752;2023-02-04T03:11:59;11.13;;;7.15;;
70342;SDS011;57767;42.068;24.752;2023-02-04T03:13:01;10.15;;;7.03;;
70342;SDS011;57767;42.068;24.752;2023-02-04T03:14:03;12.00;;;7.40;;
70342;SDS011;57767;42.068;24.752;2023-02-04T03:15:06;14.60;;;7.22;;
70342;SDS011;57767;42.068;24.752;2023-02-04T03:16:08;10.68;;;7.50;;
70342;SDS011;57767;42.068;24.752;2023-02-04T03:17:10;16.15;;;7.70;;
70342;SDS011;57767;42.068;24.752;2023-02-04T03:18:12;12.02;;;7.75;;
70342;SDS011;57767;42.068;24.752;2023-02-04T03:19:16;13.05;;;7.38;;
70342;SDS011;57767;42.068;24.752;2023-02-04T03:20:18;13.20;;;7.07;;
70342;SDS011;57767;42.068;24.752;2023-02-04T03:21:20;10.98;;;7.28;;
70342;SDS011;57767;42.068;24.752;2023-02-04T03:22:22;8.45;;;6.05;;
70342;SDS011;57767;42.068;24.752;2023-02-04T03:23:24;13.02;;;6.80;;
70342;SDS011;57767;42.068;24.752;2023-02-04T03:24:27;10.93;;;6.72;;
70342;SDS011;57767;42.068;24.752;2023-02-04T03:25:29;10.38;;;6.50;;
70342;SDS011;57767;42.068;24.752;2023-02-04T03:26:31;13.23;;;6.03;;
70342;SDS011;57767;42.068;24.752;2023-02-04T03:27:33;8.82;;;5.28;;
70342;SDS011;57767;42.068;24.752;2023-02-04T03:28:38;8.35;;;5.53;;
70342;SDS011;57767;42.068;24.752;2023-02-04T03:29:44;9.73;;;5.72;;
70342;SDS011;57767;42.068;24.752;2023-02-04T03:30:46;9.38;;;5.70;;
70342;SDS011;57767;42.068;24.752;2023-02-04T03:31:54;12.00;;;5.90;;
70342;SDS011;57767;42.068;24.752;2023-02-04T03:32:56;7.65;;;5.65;;
70342;SDS011;57767;42.068;24.752;2023-02-04T03:33:58;8.75;;;5.38;;
70342;SDS011;57767;42.068;24.752;2023-02-04T03:35:00;8.07;;;5.15;;
70342;SDS011;57767;42.068;24.752;2023-02-04T03:36:01;8.13;;;5.68;;
70342;SDS011;57767;42.068;24.752;2023-02-04T03:37:03;6.88;;;5.30;;
70342;SDS011;57767;42.068;24.752;2023-02-04T03:38:05;9.98;;;5.55;;
70342;SDS011;57767;42.068;24.752;2023-02-04T03:39:07;7.85;;;5.43;;
70342;SDS011;57767;42.068;24.752;2023-02-04T03:40:09;8.60;;;5.57;;
70342;SDS011;57767;42.068;24.752;2023-02-04T03:41:12;7.50;;;4.90;;
70342;SDS011;57767;42.068;24.752;2023-02-04T03:42:13;7.78;;;4.55;;
70342;SDS011;57767;42.068;24.752;2023-02-04T03:43:15;7.90;;;4.57;;
70342;SDS011;57767;42.068;24.752;2023-02-04T03:44:17;6.88;;;5.10;;
70342;SDS011;57767;42.068;24.752;2023-02-04T03:45:19;9.18;;;4.80;;
70342;SDS011;57767;42.068;24.752;2023-02-04T03:46:21;10.75;;;5.53;;
70342;SDS011;57767;42.068;24.752;2023-02-04T03:47:26;8.18;;;5.55;;
70342;SDS011;57767;42.068;24.752;2023-02-04T03:48:28;8.32;;;5.03;;
70342;SDS011;57767;42.068;24.752;2023-02-04T03:49:29;8.07;;;5.10;;
70342;SDS011;57767;42.068;24.752;2023-02-04T03:50:32;6.50;;;4.65;;
70342;SDS011;57767;42.068;24.752;2023-02-04T03:51:34;5.88;;;4.55;;
70342;SDS011;57767;42.068;24.752;2023-02-04T03:52:36;5.65;;;4.47;;
70342;SDS011;57767;42.068;24.752;2023-02-04T03:53:37;7.75;;;4.85;;
70342;SDS011;57767;42.068;24.752;2023-02-04T03:54:39;7.82;;;4.70;;
70342;SDS011;57767;42.068;24.752;2023-02-04T03:55:41;8.02;;;4.70;;
70342;SDS011;57767;42.068;24.752;2023-02-04T03:56:43;5.95;;;4.53;;
70342;SDS011;57767;42.068;24.752;2023-02-04T03:57:44;10.02;;;4.70;;
70342;SDS011;57767;42.068;24.752;2023-02-04T03:58:46;7.18;;;4.82;;
70342;SDS011;57767;42.068;24.752;2023-02-04T03:59:48;5.45;;;4.80;;
70342;SDS011;57767;42.068;24.752;2023-02-04T04:00:50;10.23;;;5.07;;
70342;SDS011;57767;42.068;24.752;2023-02-04T04:01:51;8.50;;;5.75;;
70342;SDS011;57767;42.068;24.752;2023-02-04T04:02:53;8.13;;;5.72;;
70342;SDS011;57767;42.068;24.752;2023-02-04T04:03:57;7.90;;;5.10;;
70342;SDS011;57767;42.068;24.752;2023-02-04T04:04:59;7.63;;;5.00;;
70342;SDS011;57767;42.068;24.752;2023-02-04T04:06:01;6.50;;;4.50;;
70342;SDS011;57767;42.068;24.752;2023-02-04T04:07:05;7.28;;;5.43;;
70342;SDS011;57767;42.068;24.752;2023-02-04T04:08:07;8.57;;;5.55;;
70342;SDS011;57767;42.068;24.752;2023-02-04T04:09:09;7.72;;;5.20;;
70342;SDS011;57767;42.068;24.752;2023-02-04T04:10:10;9.25;;;5.38;;
70342;SDS011;57767;42.068;24.752;2023-02-04T04:11:13;9.85;;;4.97;;
70342;SDS011;57767;42.068;24.752;2023-02-04T04:12:15;7.28;;;4.90;;
70342;SDS011;57767;42.068;24.752;2023-02-04T04:13:17;7.35;;;4.90;;
70342;SDS011;57767;42.068;24.752;2023-02-04T04:14:19;6.97;;;4.80;;
70342;SDS011;57767;42.068;24.752;2023-02-04T04:15:21;7.22;;;5.32;;
70342;SDS011;57767;42.068;24.752;2023-02-04T04:16:23;8.38;;;4.50;;
70342;SDS011;57767;42.068;24.752;2023-02-04T04:17:24;5.68;;;4.45;;
70342;SDS011;57767;42.068;24.752;2023-02-04T04:18:26;7.63;;;4.93;;
70342;SDS011;57767;42.068;24.752;2023-02-04T04:19:28;6.78;;;4.68;;
70342;SDS011;57767;42.068;24.752;2023-02-04T04:20:32;6.78;;;4.50;;
70342;SDS011;57767;42.068;24.752;2023-02-04T04:21:34;7.13;;;4.40;;
70342;SDS011;57767;42.068;24.752;2023-02-04T04:22:36;7.40;;;5.13;;
70342;SDS011;57767;42.068;24.752;2023-02-04T04:23:37;7.38;;;5.03;;
70342;SDS011;57767;42.068;24.752;2023-02-04T04:24:39;8.55;;;5.38;;
70342;SDS011;57767;42.068;24.752;2023-02-04T04:25:42;8.15;;;5.05;;
70342;SDS011;57767;42.068;24.752;2023-02-04T04:26:43;6.88;;;5.10;;
70342;SDS011;57767;42.068;24.752;2023-02-04T04:27:45;7.50;;;5.50;;
70342;SDS011;57767;42.068;24.752;2023-02-04T04:28:47;6.78;;;4.60;;
70342;SDS011;57767;42.068;24.752;2023-02-04T04:29:49;8.20;;;5.10;;
70342;SDS011;57767;42.068;24.752;2023-02-04T04:30:50;9.90;;;5.25;;
70342;SDS011;57767;42.068;24.752;2023-02-04T04:31:52;8.35;;;5.20;;
70342;SDS011;57767;42.068;24.752;2023-02-04T04:32:54;8.60;;;4.35;;
70342;SDS011;57767;42.068;24.752;2023-02-04T04:33:56;6.35;;;4.90;;
70342;SDS011;57767;42.068;24.752;2023-02-04T04:34:57;8.52;;;5.38;;
70342;SDS011;57767;42.068;24.752;2023-02-04T04:35:59;9.65;;;5.20;;
70342;SDS011;57767;42.068;24.752;2023-02-04T04:37:01;7.90;;;4.75;;
70342;SDS011;57767;42.068;24.752;2023-02-04T04:38:03;9.13;;;5.30;;
70342;SDS011;57767;42.068;24.752;2023-02-04T04:39:05;8.15;;;5.35;;
70342;SDS011;57767;42.068;24.752;2023-02-04T04:40:07;8.18;;;5.30;;
70342;SDS011;57767;42.068;24.752;2023-02-04T04:41:12;8.80;;;5.80;;
70342;SDS011;57767;42.068;24.752;2023-02-04T04:42:14;10.98;;;7.05;;
70342;SDS011;57767;42.068;24.752;2023-02-04T04:43:15;10.13;;;6.43;;
70342;SDS011;57767;42.068;24.752;2023-02-04T04:44:17;11.82;;;7.03;;
70342;SDS011;57767;42.068;24.752;2023-02-04T04:45:19;13.40;;;7.78;;
70342;SDS011;57767;42.068;24.752;2023-02-04T04:46:21;16.25;;;8.75;;
70342;SDS011;57767;42.068;24.752;2023-02-04T04:47:23;16.05;;;9.30;;
70342;SDS011;57767;42.068;24.752;2023-02-04T04:48:25;10.70;;;7.35;;
70342;SDS011;57767;42.068;24.752;2023-02-04T04:49:27;13.32;;;7.95;;
70342;SDS011;57767;42.068;24.752;2023-02-04T04:50:29;42.83;;;16.08;;
70342;SDS011;57767;42.068;24.752;2023-02-04T04:51:31;38.53;;;16.17;;
70342;SDS011;57767;42.068;24.752;2023-02-04T04:52:33;33.70;;;13.95;;
70342;SDS011;57767;42.068;24.752;2023-02-04T04:53:35;27.48;;;12.38;;
70342;SDS011;57767;42.068;24.752;2023-02-04T04:54:37;27.50;;;11.88;;
70342;SDS011;57767;42.068;24.752;2023-02-04T04:55:39;26.50;;;11.10;;
70342;SDS011;57767;42.068;24.752;2023-02-04T04:56:41;21.45;;;10.05;;
70342;SDS011;57767;42.068;24.752;2023-02-04T04:57:42;19.90;;;9.93;;
70342;SDS011;57767;42.068;24.752;2023-02-04T04:58:44;19.90;;;9.07;;
70342;SDS011;57767;42.068;24.752;2023-02-04T04:59:46;12.13;;;6.68;;
70342;SDS011;57767;42.068;24.752;2023-02-04T05:00:48;10.35;;;7.20;;
70342;SDS011;57767;42.068;24.752;2023-02-04T05:01:49;13.13;;;6.63;;
70342;SDS011;57767;42.068;24.752;2023-02-04T05:02:51;13.18;;;8.20;;
70342;SDS011;57767;42.068;24.752;2023-02-04T05:03:53;12.10;;;7.20;;
70342;SDS011;57767;42.068;24.752;2023-02-04T05:04:55;13.25;;;7.50;;
70342;SDS011;57767;42.068;24.752;2023-02-04T05:05:56;12.57;;;6.97;;
70342;SDS011;57767;42.068;24.752;2023-02-04T05:06:58;11.77;;;6.57;;
70342;SDS011;57767;42.068;24.752;2023-02-04T05:08:00;14.75;;;7.10;;
70342;SDS011;57767;42.068;24.752;2023-02-04T05:09:01;13.70;;;6.80;;
70342;SDS011;57767;42.068;24.752;2023-02-04T05:10:03;8.88;;;5.75;;
70342;SDS011;57767;42.068;24.752;2023-02-04T05:11:06;8.73;;;6.45;;
70342;SDS011;57767;42.068;24.752;2023-02-04T05:12:08;13.20;;;7.93;;
70342;SDS011;57767;42.068;24.752;2023-02-04T05:13:09;14.13;;;7.68;;
70342;SDS011;57767;42.068;24.752;2023-02-04T05:14:11;13.55;;;8.90;;
70342;SDS011;57767;42.068;24.752;2023-02-04T05:15:13;13.50;;;8.48;;
70342;SDS011;57767;42.068;24.752;2023-02-04T05:16:15;17.63;;;9.18;;
70342;SDS011;57767;42.068;24.752;2023-02-04T05:17:18;16.42;;;8.95;;
70342;SDS011;57767;42.068;24.752;2023-02-04T05:18:20;25.60;;;8.80;;
70342;SDS011;57767;42.068;24.752;2023-02-04T05:19:22;14.82;;;8.30;;
70342;SDS011;57767;42.068;24.752;2023-02-04T05:20:24;14.60;;;7.72;;
70342;SDS011;57767;42.068;24.752;2023-02-04T05:21:25;14.63;;;8.05;;
70342;SDS011;57767;42.068;24.752;2023-02-04T05:22:27;11.00;;;7.15;;
70342;SDS011;57767;42.068;24.752;2023-02-04T05:23:29;14.75;;;7.45;;
70342;SDS011;57767;42.068;24.752;2023-02-04T05:24:31;9.55;;;5.35;;
70342;SDS011;57767;42.068;24.752;2023-02-04T05:25:33;8.65;;;5.35;;
70342;SDS011;57767;42.068;24.752;2023-02-04T05:26:34;10.32;;;6.15;;
70342;SDS011;57767;42.068;24.752;2023-02-04T05:27:36;6.65;;;4.63;;
70342;SDS011;57767;42.068;24.752;2023-02-04T05:28:38;6.32;;;4.35;;
70342;SDS011;57767;42.068;24.752;2023-02-04T05:29:39;8.77;;;4.47;;
70342;SDS011;57767;42.068;24.752;2023-02-04T05:30:41;5.13;;;3.65;;
70342;SDS011;57767;42.068;24.752;2023-02-04T05:31:43;5.40;;;3.00;;
70342;SDS011;57767;42.068;24.752;2023-02-04T05:32:45;4.75;;;3.17;;
70342;SDS011;57767;42.068;24.752;2023-02-04T05:33:47;4.65;;;3.20;;
70342;SDS011;57767;42.068;24.752;2023-02-04T05:34:48;4.40;;;2.90;;
70342;SDS011;57767;42.068;24.752;2023-02-04T05:35:50;3.60;;;3.05;;
70342;SDS011;57767;42.068;24.752;2023-02-04T05:36:52;4.28;;;3.17;;
70342;SDS011;57767;42.068;24.752;2023-02-04T05:37:54;3.85;;;3.15;;
70342;SDS011;57767;42.068;24.752;2023-02-04T05:38:55;4.32;;;2.80;;
70342;SDS011;57767;42.068;24.752;2023-02-04T05:39:57;4.32;;;2.90;;
70342;SDS011;57767;42.068;24.752;2023-02-04T05:40:59;5.80;;;2.97;;
70342;SDS011;57767;42.068;24.752;2023-02-04T05:42:00;4.13;;;3.28;;
70342;SDS011;57767;42.068;24.752;2023-02-04T05:43:02;4.72;;;3.25;;
70342;SDS011;57767;42.068;24.752;2023-02-04T05:44:05;6.03;;;3.80;;
70342;SDS011;57767;42.068;24.752;2023-02-04T05:45:12;4.25;;;3.50;;
70342;SDS011;57767;42.068;24.752;2023-02-04T05:46:16;5.22;;;3.22;;
70342;SDS011;57767;42.068;24.752;2023-02-04T05:47:18;5.22;;;3.40;;
70342;SDS011;57767;42.068;24.752;2023-02-04T05:48:20;6.60;;;4.07;;
70342;SDS011;57767;42.068;24.752;2023-02-04T05:49:22;6.22;;;3.83;;
70342;SDS011;57767;42.068;24.752;2023-02-04T05:50:25;13.57;;;6.88;;
70342;SDS011;57767;42.068;24.752;2023-02-04T05:51:26;21.25;;;9.32;;
70342;SDS011;57767;42.068;24.752;2023-02-04T05:52:28;18.35;;;10.23;;
70342;SDS011;57767;42.068;24.752;2023-02-04T05:53:30;16.13;;;10.55;;
70342;SDS011;57767;42.068;24.752;2023-02-04T05:54:32;16.77;;;11.75;;
70342;SDS011;57767;42.068;24.752;2023-02-04T05:55:34;20.52;;;12.50;;
70342;SDS011;57767;42.068;24.752;2023-02-04T05:56:35;21.45;;;12.85;;
70342;SDS011;57767;42.068;24.752;2023-02-04T05:57:37;21.55;;;12.73;;
70342;SDS011;57767;42.068;24.752;2023-02-04T05:58:42;20.67;;;12.27;;
70342;SDS011;57767;42.068;24.752;2023-02-04T05:59:44;21.73;;;12.43;;
70342;SDS011;57767;42.068;24.752;2023-02-04T06:00:46;19.58;;;11.80;;
70342;SDS011;57767;42.068;24.752;2023-02-04T06:01:48;21.55;;;12.60;;
70342;SDS011;57767;42.068;24.752;2023-02-04T06:02:49;17.85;;;11.52;;
70342;SDS011;57767;42.068;24.752;2023-02-04T06:03:51;20.98;;;12.70;;
70342;SDS011;57767;42.068;24.752;2023-02-04T06:04:53;19.50;;;12.13;;
70342;SDS011;57767;42.068;24.752;2023-02-04T06:05:55;19.77;;;12.05;;
70342;SDS011;57767;42.068;24.752;2023-02-04T06:06:57;20.60;;;12.30;;
70342;SDS011;57767;42.068;24.752;2023-02-04T06:07:59;21.60;;;11.90;;
70342;SDS011;57767;42.068;24.752;2023-02-04T06:09:01;22.08;;;12.35;;